createdAt,value
2023-02-16T00:46:01.459Z,7.80
2023-02-16T00:48:29.884Z,7.80
2023-02-16T00:50:58.271Z,7.72
2023-02-16T00:53:26.932Z,7.38
2023-02-16T00:55:56.435Z,6.95
2023-02-16T00:58:27.968Z,7.10
2023-02-16T01:46:26.343Z,6.70
2023-02-16T01:48:55.255Z,6.68
2023-02-16T01:51:28.592Z,6.05
2023-02-16T01:54:05.738Z,6.00
2023-02-16T01:56:41.096Z,6.20
2023-02-16T01:59:19.592Z,6.30
2023-02-16T02:46:28.500Z,6.43
2023-02-16T02:48:57.218Z,5.75
2023-02-16T02:51:33.757Z,5.40
2023-02-16T02:54:26.262Z,5.40
2023-02-16T02:57:23.291Z,5.32
2023-02-16T03:45:21.498Z,4.60
2023-02-16T03:47:50.122Z,5.18
2023-02-16T03:50:19.017Z,5.03
2023-02-16T03:52:47.477Z,4.63
2023-02-16T03:55:16.326Z,4.55
2023-02-16T03:57:44.795Z,4.45
2023-02-16T04:47:05.852Z,4.60
2023-02-16T04:49:34.630Z,4.55
2023-02-16T04:52:03.952Z,4.30
2023-02-16T04:54:32.681Z,4.50
2023-02-16T04:57:01.924Z,4.40
2023-02-16T04:59:30.343Z,4.50
2023-02-16T05:46:00.518Z,5.10
2023-02-16T05:48:29.048Z,4.70
2023-02-16T05:50:57.499Z,4.18
2023-02-16T05:53:26.078Z,4.53
2023-02-16T05:55:54.983Z,4.00
2023-02-16T05:58:23.595Z,4.18
2023-02-16T06:00:52.004Z,4.15
2023-02-16T06:03:21.845Z,4.10
2023-02-16T06:05:54.955Z,4.20
2023-02-16T06:08:23.831Z,4.10
2023-02-16T06:10:53.771Z,4.38
2023-02-16T06:13:23.254Z,4.57
2023-02-16T06:15:55.193Z,4.32
2023-02-16T06:18:26.387Z,4.10
2023-02-16T06:20:57.592Z,4.00
2023-02-16T06:23:26.356Z,4.07
2023-02-16T06:25:54.957Z,3.83
2023-02-16T06:28:23.849Z,4.30
2023-02-16T06:30:52.282Z,4.55
2023-02-16T06:33:20.753Z,4.35
2023-02-16T06:35:50.753Z,4.25
2023-02-16T06:38:19.170Z,4.40
2023-02-16T06:40:47.672Z,4.65
2023-02-16T06:43:16.046Z,4.50
2023-02-16T06:45:44.512Z,4.72
2023-02-16T06:48:12.842Z,4.07
2023-02-16T06:50:41.358Z,4.70
2023-02-16T06:53:11.466Z,5.20
2023-02-16T06:55:40.016Z,4.78
2023-02-16T06:58:09.361Z,4.50
2023-02-16T07:00:37.913Z,4.90
2023-02-16T07:03:06.545Z,4.10
2023-02-16T07:05:35.059Z,4.82
2023-02-16T07:08:03.438Z,4.15
2023-02-16T07:10:47.733Z,3.78
2023-02-16T07:13:17.912Z,4.53
2023-02-16T07:15:46.713Z,4.55
2023-02-16T07:18:15.075Z,4.18
2023-02-16T07:20:43.460Z,4.28
2023-02-16T07:23:11.886Z,4.43
2023-02-16T07:25:41.965Z,4.10
2023-02-16T07:28:10.502Z,4.22
2023-02-16T07:30:38.976Z,4.75
2023-02-16T07:33:07.824Z,3.92
2023-02-16T07:35:37.552Z,4.20
2023-02-16T07:38:07.466Z,4.30
2023-02-16T07:40:36.468Z,4.43
2023-02-16T07:43:07.755Z,4.20
2023-02-16T07:45:36.527Z,4.38
2023-02-16T07:48:05.892Z,3.95
2023-02-16T07:50:34.658Z,4.45
2023-02-16T07:53:03.580Z,3.90
2023-02-16T07:55:32.058Z,3.70
2023-02-16T07:58:02.090Z,3.75
2023-02-16T08:00:32.177Z,4.05
2023-02-16T08:03:00.939Z,4.03
2023-02-16T08:05:29.959Z,4.00
2023-02-16T08:07:58.404Z,3.20
2023-02-16T08:10:27.136Z,3.50
2023-02-16T08:12:55.733Z,3.90
2023-02-16T08:15:24.875Z,3.92
2023-02-16T08:17:54.899Z,3.90
2023-02-16T08:20:28.382Z,4.25
2023-02-16T08:23:03.746Z,3.80
2023-02-16T08:25:33.988Z,3.58
2023-02-16T08:28:02.348Z,3.53
2023-02-16T08:30:31.156Z,3.63
2023-02-16T08:33:01.773Z,3.85
2023-02-16T08:35:32.434Z,3.85
2023-02-16T08:38:02.358Z,3.95
2023-02-16T08:40:31.470Z,3.53
2023-02-16T08:42:59.871Z,3.35
2023-02-16T08:45:29.650Z,4.07
2023-02-16T08:48:01.208Z,3.80
2023-02-16T08:50:30.940Z,3.88
2023-02-16T08:52:59.323Z,3.95
2023-02-16T08:55:27.871Z,3.90
2023-02-16T08:57:56.491Z,3.80
2023-02-16T09:00:38.569Z,3.70
2023-02-16T09:03:07.248Z,4.47
2023-02-16T09:05:37.288Z,3.88
2023-02-16T09:08:06.210Z,3.67
2023-02-16T09:10:34.535Z,4.10
2023-02-16T09:13:03.414Z,3.65
2023-02-16T09:15:33.266Z,3.97
2023-02-16T09:18:01.651Z,3.33
2023-02-16T09:20:30.079Z,3.38
2023-02-16T09:23:00.086Z,3.75
2023-02-16T09:25:28.719Z,3.75
2023-02-16T09:27:57.867Z,3.90
2023-02-16T09:30:26.738Z,3.47
2023-02-16T09:32:55.693Z,3.63
2023-02-16T09:35:24.295Z,4.07
2023-02-16T09:37:53.906Z,3.92
2023-02-16T09:40:24.384Z,4.35
2023-02-16T09:43:06.876Z,5.47
2023-02-16T09:45:42.973Z,3.65
2023-02-16T09:48:25.098Z,3.92
2023-02-16T09:50:55.420Z,3.83
2023-02-16T09:53:37.153Z,3.95
2023-02-16T09:56:20.098Z,3.78
2023-02-16T09:58:52.955Z,3.55
2023-02-16T10:01:31.788Z,3.63
2023-02-16T10:04:24.127Z,3.70
2023-02-16T10:07:06.113Z,3.67
2023-02-16T10:09:35.695Z,3.63
2023-02-16T10:12:09.359Z,3.40
2023-02-16T10:14:45.604Z,3.80
2023-02-16T10:17:24.316Z,3.25
2023-02-16T10:19:57.442Z,3.53
2023-02-16T10:22:33.460Z,3.50
2023-02-16T10:25:06.093Z,3.90
2023-02-16T10:27:42.221Z,3.67
2023-02-16T10:30:18.213Z,3.30
2023-02-16T10:32:57.999Z,3.55
2023-02-16T10:35:38.272Z,3.28
2023-02-16T10:38:15.532Z,3.58
2023-02-16T10:40:55.302Z,3.53
2023-02-16T10:43:43.234Z,3.60
2023-02-16T10:46:16.339Z,3.58
2023-02-16T10:48:46.474Z,4.20
2023-02-16T10:51:18.962Z,4.95
2023-02-16T10:53:51.245Z,4.03
2023-02-16T10:56:39.614Z,4.22
2023-02-16T10:59:17.534Z,6.70
2023-02-16T11:01:49.507Z,51.42
2023-02-16T11:04:38.179Z,250.23
2023-02-16T11:07:10.149Z,433.33
2023-02-16T11:09:40.899Z,294.25
2023-02-16T11:12:29.669Z,196.20
2023-02-16T11:15:04.398Z,121.30
2023-02-16T11:17:48.282Z,93.10
2023-02-16T11:20:29.808Z,92.47
2023-02-16T11:23:23.111Z,89.78
2023-02-16T11:26:04.042Z,84.78
2023-02-16T11:28:37.089Z,85.35
2023-02-16T11:31:17.022Z,84.30
2023-02-16T11:33:58.534Z,79.90
2023-02-16T11:36:34.070Z,61.90
2023-02-16T11:39:07.771Z,47.83
2023-02-16T11:41:37.408Z,43.10
2023-02-16T11:44:06.993Z,40.15
2023-02-16T11:46:42.451Z,39.75
2023-02-16T11:49:30.030Z,39.05
2023-02-16T11:51:59.146Z,36.58
2023-02-16T11:54:27.908Z,32.78
2023-02-16T11:57:05.779Z,31.80
2023-02-16T11:59:38.681Z,30.58
2023-02-16T12:02:58.088Z,30.15
2023-02-16T12:05:35.935Z,29.00
2023-02-16T12:08:25.843Z,27.25
2023-02-16T12:11:25.411Z,26.33
2023-02-16T12:14:13.591Z,25.70
2023-02-16T12:16:51.111Z,23.38
2023-02-16T12:19:34.801Z,21.52
2023-02-16T12:22:40.366Z,21.88
2023-02-16T12:25:27.644Z,20.55
2023-02-16T12:28:07.436Z,19.58
2023-02-16T12:30:52.745Z,19.85
2023-02-16T12:33:43.157Z,17.52
2023-02-16T12:36:36.151Z,18.30
2023-02-16T12:39:17.733Z,18.88
2023-02-16T12:42:21.212Z,16.98
2023-02-16T12:44:53.733Z,16.63
2023-02-16T12:47:29.673Z,16.27
2023-02-16T12:50:03.426Z,15.93
2023-02-16T12:52:41.280Z,15.90
2023-02-16T12:55:20.794Z,15.30
2023-02-16T12:57:57.959Z,15.55
2023-02-16T13:00:36.651Z,14.85
2023-02-16T13:03:21.888Z,15.25
2023-02-16T13:05:58.571Z,13.98
2023-02-16T13:08:40.221Z,12.95
2023-02-16T13:11:17.427Z,11.65
2023-02-16T13:13:50.280Z,12.13
2023-02-16T13:16:30.071Z,12.05
2023-02-16T13:19:00.028Z,11.10
2023-02-16T13:21:51.557Z,11.52
2023-02-16T13:24:33.957Z,11.68
2023-02-16T13:27:33.942Z,10.80
2023-02-16T13:30:51.301Z,11.20
2023-02-16T13:33:44.266Z,9.85
2023-02-16T13:36:29.225Z,10.52
2023-02-16T13:39:29.816Z,10.63
2023-02-16T13:42:43.139Z,9.63
2023-02-16T13:45:18.721Z,9.60
2023-02-16T13:47:47.431Z,9.55
2023-02-16T13:50:30.884Z,9.18
2023-02-16T13:53:19.028Z,9.43
2023-02-16T13:55:50.776Z,8.48
2023-02-16T13:58:33.933Z,9.25
2023-02-16T14:01:39.878Z,9.15
2023-02-16T14:04:34.331Z,8.32
2023-02-16T14:07:35.951Z,8.13
2023-02-16T14:10:04.553Z,8.13
2023-02-16T14:12:38.692Z,8.65
2023-02-16T14:15:19.422Z,8.18
2023-02-16T14:17:54.068Z,8.10
2023-02-16T14:20:31.535Z,8.18
2023-02-16T14:23:03.580Z,8.40
2023-02-16T14:25:40.044Z,8.25
2023-02-16T14:29:09.465Z,8.32
2023-02-16T14:31:48.402Z,8.30
2023-02-16T14:34:23.207Z,8.40
2023-02-16T14:37:30.144Z,8.15
2023-02-16T14:40:47.537Z,7.40
2023-02-16T14:43:31.594Z,7.70
2023-02-16T14:46:35.133Z,7.97
2023-02-16T14:49:51.501Z,7.85
2023-02-16T14:52:53.890Z,7.35
2023-02-16T14:56:31.337Z,7.97
2023-02-16T14:59:04.380Z,7.10
2023-02-16T15:01:42.687Z,7.93
2023-02-16T15:04:12.755Z,7.07
2023-02-16T15:06:54.813Z,7.15
2023-02-16T15:09:27.516Z,7.35
2023-02-16T15:12:24.974Z,7.20
2023-02-16T15:15:01.624Z,7.18
2023-02-16T15:17:35.616Z,7.90
2023-02-16T15:20:12.272Z,848.50
2023-02-16T15:22:49.022Z,588.65
2023-02-16T15:25:26.332Z,599.35
2023-02-16T15:28:01.868Z,543.55
2023-02-16T15:30:32.659Z,534.50
2023-02-16T15:33:03.978Z,522.05
2023-02-16T15:35:37.924Z,509.77
2023-02-16T15:38:20.750Z,494.98
2023-02-16T15:40:53.672Z,438.15
2023-02-16T15:43:35.730Z,444.63
2023-02-16T15:46:06.807Z,437.20
2023-02-16T15:48:38.244Z,433.20
2023-02-16T15:51:14.361Z,430.10
2023-02-16T15:53:51.686Z,419.50
2023-02-16T15:56:44.386Z,423.20
2023-02-16T15:59:34.355Z,415.67
2023-02-16T16:02:13.960Z,408.88
2023-02-16T16:04:45.489Z,400.58
2023-02-16T16:07:17.554Z,395.15
2023-02-16T16:09:46.859Z,388.52
2023-02-16T16:12:20.081Z,385.92
2023-02-16T16:14:56.052Z,382.30
2023-02-16T16:17:30.612Z,378.45
2023-02-16T16:20:19.041Z,373.77
2023-02-16T16:22:47.634Z,365.83
2023-02-16T16:25:40.149Z,369.23
2023-02-16T16:28:13.178Z,370.42
2023-02-16T16:30:45.227Z,361.33
2023-02-16T16:33:16.117Z,350.90
2023-02-16T16:35:47.215Z,351.70
2023-02-16T16:38:27.152Z,344.92
2023-02-16T16:40:58.574Z,345.50
2023-02-16T16:43:31.187Z,348.70
2023-02-16T16:46:18.950Z,346.92
2023-02-16T16:48:50.295Z,340.75
2023-02-16T16:51:22.615Z,342.33
2023-02-16T16:54:00.381Z,338.38
2023-02-16T16:56:31.178Z,337.08
2023-02-16T16:59:01.210Z,330.80
2023-02-16T17:01:32.187Z,330.50
2023-02-16T17:04:01.604Z,323.58
2023-02-16T17:06:31.254Z,320.65
2023-02-16T17:09:00.219Z,323.02
2023-02-16T17:11:33.790Z,318.33
2023-02-16T17:14:10.417Z,316.98
2023-02-16T17:16:44.466Z,320.17
2023-02-16T17:19:14.627Z,317.15
2023-02-16T17:21:43.694Z,313.63
2023-02-16T17:24:12.480Z,312.45
2023-02-16T17:26:41.378Z,306.50
2023-02-16T17:29:10.347Z,308.33
2023-02-16T17:31:40.283Z,301.42
2023-02-16T17:34:11.371Z,297.65
2023-02-16T17:36:40.655Z,304.55
2023-02-16T17:39:09.299Z,297.88
2023-02-16T17:41:41.430Z,299.95
2023-02-16T17:44:11.417Z,293.05
2023-02-16T17:46:45.001Z,287.35
2023-02-16T17:49:17.628Z,293.10
2023-02-16T17:51:46.720Z,293.55
2023-02-16T17:54:17.002Z,288.33
2023-02-16T17:56:47.121Z,285.80
2023-02-16T17:59:21.403Z,277.70
2023-02-16T18:01:53.394Z,285.27
2023-02-16T18:04:23.910Z,278.45
2023-02-16T18:06:53.097Z,277.02
2023-02-16T18:09:24.734Z,278.48
2023-02-16T18:11:53.839Z,270.02
2023-02-16T18:14:26.597Z,272.58
2023-02-16T18:17:02.238Z,269.27
2023-02-16T18:19:32.007Z,262.92
2023-02-16T18:22:02.025Z,249.25
2023-02-16T18:24:33.492Z,240.20
2023-02-16T18:27:02.035Z,216.27
2023-02-16T18:29:30.929Z,217.98
2023-02-16T18:32:03.315Z,167.68
2023-02-16T18:34:33.341Z,157.45
2023-02-16T18:37:02.036Z,153.60
2023-02-16T18:39:30.901Z,150.23
2023-02-16T18:41:59.341Z,140.57
2023-02-16T18:44:28.354Z,139.82
2023-02-16T18:46:57.357Z,133.27
2023-02-16T18:49:27.477Z,107.20
2023-02-16T18:51:56.040Z,99.53
2023-02-16T18:54:24.420Z,94.18
2023-02-16T18:56:53.263Z,93.90
2023-02-16T18:59:21.764Z,91.65
2023-02-16T19:01:56.293Z,93.57
2023-02-16T19:04:26.732Z,88.90
2023-02-16T19:06:56.007Z,84.03
2023-02-16T19:09:24.442Z,83.13
2023-02-16T19:11:53.222Z,79.20
2023-02-16T19:14:21.980Z,79.05
2023-02-16T19:16:50.311Z,75.57
2023-02-16T19:19:19.153Z,74.03
2023-02-16T19:21:48.908Z,75.00
2023-02-16T19:24:17.479Z,72.22
2023-02-16T19:26:46.146Z,69.93
2023-02-16T19:29:14.814Z,71.38
2023-02-16T19:31:43.404Z,70.38
2023-02-16T19:34:12.439Z,66.50
2023-02-16T19:36:41.416Z,70.07
2023-02-16T19:39:12.585Z,64.40
2023-02-16T19:41:44.072Z,67.72
2023-02-16T19:44:14.047Z,64.07
2023-02-16T19:46:43.234Z,61.05
2023-02-16T19:49:15.125Z,62.15
2023-02-16T19:51:44.383Z,60.75
2023-02-16T19:54:14.233Z,60.90
2023-02-16T19:56:42.803Z,61.58
2023-02-16T19:59:11.456Z,60.15
2023-02-16T20:01:39.956Z,57.80
2023-02-16T20:04:08.721Z,55.50
2023-02-16T20:06:41.037Z,45.80
2023-02-16T20:09:12.175Z,40.78
2023-02-16T20:11:42.382Z,39.97
2023-02-16T20:14:12.063Z,40.65
2023-02-16T20:16:41.722Z,37.38
2023-02-16T20:19:10.757Z,37.55
2023-02-16T20:21:40.843Z,35.33
2023-02-16T20:24:09.285Z,34.78
2023-02-16T20:26:42.528Z,33.92
2023-02-16T20:29:13.855Z,32.88
2023-02-16T20:31:49.432Z,33.92
2023-02-16T20:34:19.573Z,33.35
2023-02-16T20:36:48.530Z,31.35
2023-02-16T20:39:17.334Z,31.70
2023-02-16T20:41:47.273Z,32.60
2023-02-16T20:44:15.739Z,33.20
2023-02-16T20:46:44.630Z,31.67
2023-02-16T20:49:14.623Z,30.80
2023-02-16T20:51:43.405Z,28.77
2023-02-16T20:54:13.651Z,29.15
2023-02-16T20:56:42.359Z,27.00
2023-02-16T20:59:13.819Z,25.30
2023-02-16T21:01:46.512Z,24.48
2023-02-16T21:04:17.410Z,24.05
2023-02-16T21:06:47.343Z,22.52
2023-02-16T21:09:17.456Z,22.40
2023-02-16T21:11:46.114Z,20.90
2023-02-16T21:14:16.515Z,20.08
2023-02-16T21:16:45.122Z,20.70
2023-02-16T21:19:22.472Z,19.98
2023-02-16T21:21:51.990Z,18.98
2023-02-16T21:24:20.926Z,18.52
2023-02-16T21:26:49.763Z,19.17
2023-02-16T21:29:19.722Z,18.33
2023-02-16T21:31:48.162Z,17.00
2023-02-16T21:34:16.791Z,17.67
2023-02-16T21:36:45.506Z,17.38
2023-02-16T21:39:14.960Z,16.98
2023-02-16T21:41:42.699Z,17.55
2023-02-16T21:44:12.834Z,18.20
2023-02-16T21:46:45.271Z,17.02
2023-02-16T21:49:16.448Z,15.13
2023-02-16T21:51:47.044Z,16.83
2023-02-16T21:54:17.983Z,16.48
2023-02-16T21:56:49.080Z,15.27
2023-02-16T21:59:22.733Z,14.32
2023-02-16T22:01:53.313Z,14.35
2023-02-16T22:04:23.621Z,12.32
2023-02-16T22:06:52.554Z,13.30
2023-02-16T22:09:24.294Z,11.73
2023-02-16T22:11:53.298Z,11.60
2023-02-16T22:14:21.897Z,11.38
2023-02-16T22:16:51.966Z,10.27
2023-02-16T22:19:20.897Z,11.15
2023-02-16T22:21:51.196Z,10.55
2023-02-16T22:24:21.550Z,10.75
2023-02-16T22:26:51.087Z,10.50
2023-02-16T22:29:20.262Z,9.43
2023-02-16T22:31:51.163Z,10.38
2023-02-16T22:34:22.332Z,10.27
2023-02-16T22:36:51.256Z,10.18
2023-02-16T22:39:21.149Z,10.00
2023-02-16T22:41:51.077Z,9.65
2023-02-16T22:44:19.610Z,9.23
2023-02-16T22:46:48.541Z,9.70
2023-02-16T22:49:18.676Z,9.88
2023-02-16T22:51:47.121Z,10.00
2023-02-16T22:54:16.306Z,10.02
2023-02-16T22:56:45.001Z,9.45
2023-02-16T22:59:14.475Z,9.75
2023-02-16T23:01:43.560Z,9.35
2023-02-16T23:04:15.413Z,9.80
2023-02-16T23:06:46.487Z,9.20
2023-02-16T23:09:19.988Z,9.13
2023-02-16T23:11:49.966Z,9.38
2023-02-16T23:14:19.265Z,9.52
2023-02-16T23:16:49.994Z,9.05
2023-02-16T23:19:22.333Z,9.15
2023-02-16T23:21:52.789Z,8.88
2023-02-16T23:24:23.744Z,8.75
2023-02-16T23:26:53.259Z,9.30
2023-02-16T23:29:21.893Z,8.90
2023-02-16T23:31:50.573Z,9.55
2023-02-16T23:34:20.867Z,8.75
2023-02-16T23:36:51.378Z,9.07
2023-02-16T23:39:20.385Z,9.20
2023-02-16T23:41:49.018Z,9.07
2023-02-16T23:44:17.566Z,8.48
2023-02-16T23:46:45.978Z,8.93
2023-02-16T23:49:14.849Z,7.95
2023-02-16T23:51:43.203Z,8.82
2023-02-16T23:54:12.999Z,8.65
2023-02-16T23:56:42.343Z,8.48
2023-02-16T23:59:10.966Z,9.10
